Shelbyville, MO (63469)

6:55 AM CDT on August 30, 2015 (GMT -0500)
Stoneburner | | Change Station
CLOSE
Current Station
Personal Weather Station
Location: Shelbyville, MO
Elevation: 764 ft
Nearby Weather Stations

Elev 764 ft 39.80 °N, 92.04 °W | Updated 37 seconds ago

Fog
Fog
68.5 °F
Feels Like 68.5 °F
N
0.0
Wind Variable Wind from NW
Gusts 0.0 mph

Today
High -- | Low -- °F
--% Chance of Precip.
Yesterday
High -- | Low -- °F
Precip. -- in
6:34 AM 7:43 PM
Full, 99% visible
Pressure 30.03 in
Visibility 0.5 miles
Clouds
Dew Point 68 °F
Humidity 99%
Rainfall 0.00 in
Snow Depth Not available.
UV Not available.
Pollen 10.20 out of 12
Air Quality Not available.
Flu Activity Not available.
METAR KIRK 301055Z AUTO 05004KT 1/2SM FG VV002 20/19 A3004 RMK AO2 SLP169 T02000189
Pressure 30.03 in
Visibility 0.5 miles
Clouds
Dew Point 68 °F
Humidity 99%
Rainfall 0.00 in
Snow Depth Not available.
UV Not available.
Pollen 10.20 out of 12
Air Quality Not available.
Flu Activity Not available.
METAR KIRK 301055Z AUTO 05004KT 1/2SM FG VV002 20/19 A3004 RMK AO2 SLP169 T02000189

10-Day Weather Forecast

×

Almanac

Astronomy

Aug. 30, 2015 Rise Set
Actual Time
Civil Twilight
Nautical Twilight
Astronomical Twilight
Moon
Length of Visible Light
Length of Day
Tomorrow will be .
, % of the Moon is Illuminated

Today's Extremes

State Highs State Lows

Community

WunderPhotos

Upload Photos

1,850,930 photos uploaded!

WunderBlogs® & News

Nearby

Air Quality

  Air Quality AQ Index Pollutant
Not available.

Snow Depth

Station Depth Elevation

Earthquake Activity

City Distance Mag. Time & Date
Minimum magnitude displayed is 2.5.

Coastal Water Temperatures

Place Temperature

Stations

Nearby Weather Stations

Station Location Temp. Windchill Dew Point Humidity Wind Precip. Elev Updated Type